sensor_id;sensor_type;location;lat;lon;timestamp;pressure;altitude;pressure_sealevel;temperature;humidity
66385;BME280;53426;55.872;37.462;2023-12-07T00:00:11;101017.63;;;-7.10;67.99
66385;BME280;53426;55.872;37.462;2023-12-07T00:02:37;101033.06;;;-7.07;68.06
66385;BME280;53426;55.872;37.462;2023-12-07T00:05:04;101021.88;;;-7.12;68.35
66385;BME280;53426;55.872;37.462;2023-12-07T00:07:30;101035.56;;;-7.13;68.28
66385;BME280;53426;55.872;37.462;2023-12-07T00:09:56;101031.22;;;-7.19;68.23
66385;BME280;53426;55.872;37.462;2023-12-07T00:12:22;101030.31;;;-7.26;68.19
66385;BME280;53426;55.872;37.462;2023-12-07T00:14:48;101024.38;;;-7.20;68.57
66385;BME280;53426;55.872;37.462;2023-12-07T00:17:14;101031.22;;;-7.21;68.03
66385;BME280;53426;55.872;37.462;2023-12-07T00:19:40;101029.56;;;-7.15;68.26
66385;BME280;53426;55.872;37.462;2023-12-07T00:22:06;101033.84;;;-7.16;68.09
66385;BME280;53426;55.872;37.462;2023-12-07T00:24:32;101036.38;;;-7.19;67.50
66385;BME280;53426;55.872;37.462;2023-12-07T00:26:58;101007.81;;;-7.40;68.12
66385;BME280;53426;55.872;37.462;2023-12-07T00:29:24;101037.13;;;-7.29;68.21
66385;BME280;53426;55.872;37.462;2023-12-07T00:31:50;101049.91;;;-7.35;68.17
66385;BME280;53426;55.872;37.462;2023-12-07T00:34:17;101013.47;;;-7.70;68.21
66385;BME280;53426;55.872;37.462;2023-12-07T00:36:46;101038.53;;;-7.52;67.61
66385;BME280;53426;55.872;37.462;2023-12-07T00:39:13;101029.09;;;-7.55;67.86
66385;BME280;53426;55.872;37.462;2023-12-07T00:41:39;101045.31;;;-7.61;68.32
66385;BME280;53426;55.872;37.462;2023-12-07T00:44:05;101036.63;;;-7.67;68.33
66385;BME280;53426;55.872;37.462;2023-12-07T00:46:31;101047.91;;;-7.57;68.44
66385;BME280;53426;55.872;37.462;2023-12-07T00:48:57;101046.88;;;-7.70;67.70
66385;BME280;53426;55.872;37.462;2023-12-07T00:51:23;101050.44;;;-7.61;68.54
66385;BME280;53426;55.872;37.462;2023-12-07T00:53:49;101046.91;;;-7.67;67.94
66385;BME280;53426;55.872;37.462;2023-12-07T00:56:14;101052.13;;;-7.64;68.44
66385;BME280;53426;55.872;37.462;2023-12-07T00:58:40;101057.16;;;-7.69;68.83
66385;BME280;53426;55.872;37.462;2023-12-07T01:01:06;101052.00;;;-7.72;68.37
66385;BME280;53426;55.872;37.462;2023-12-07T01:03:32;101050.38;;;-7.64;68.21
66385;BME280;53426;55.872;37.462;2023-12-07T01:05:58;101056.25;;;-7.75;69.01
66385;BME280;53426;55.872;37.462;2023-12-07T01:08:24;101070.88;;;-7.71;68.53
66385;BME280;53426;55.872;37.462;2023-12-07T01:10:50;101064.78;;;-7.78;68.29
66385;BME280;53426;55.872;37.462;2023-12-07T01:13:16;101058.59;;;-7.89;68.26
66385;BME280;53426;55.872;37.462;2023-12-07T01:15:42;101061.22;;;-7.87;68.63
66385;BME280;53426;55.872;37.462;2023-12-07T01:18:08;101050.88;;;-7.90;68.57
66385;BME280;53426;55.872;37.462;2023-12-07T01:20:34;101056.94;;;-7.85;68.57
66385;BME280;53426;55.872;37.462;2023-12-07T01:23:00;101061.16;;;-7.90;68.98
66385;BME280;53426;55.872;37.462;2023-12-07T01:25:26;101062.00;;;-7.90;69.12
66385;BME280;53426;55.872;37.462;2023-12-07T01:27:51;101058.72;;;-7.80;68.93
66385;BME280;53426;55.872;37.462;2023-12-07T01:30:17;101064.66;;;-7.85;68.95
66385;BME280;53426;55.872;37.462;2023-12-07T01:32:44;101070.69;;;-7.83;68.82
66385;BME280;53426;55.872;37.462;2023-12-07T01:35:10;101070.81;;;-7.74;69.29
66385;BME280;53426;55.872;37.462;2023-12-07T01:37:36;101078.50;;;-7.77;68.58
66385;BME280;53426;55.872;37.462;2023-12-07T01:40:02;101030.94;;;-8.08;67.90
66385;BME280;53426;55.872;37.462;2023-12-07T01:42:32;101053.06;;;-8.16;68.63
66385;BME280;53426;55.872;37.462;2023-12-07T01:44:57;101083.19;;;-8.06;69.29
66385;BME280;53426;55.872;37.462;2023-12-07T01:47:23;101064.13;;;-8.20;68.62
66385;BME280;53426;55.872;37.462;2023-12-07T01:49:50;101085.94;;;-7.94;68.76
66385;BME280;53426;55.872;37.462;2023-12-07T01:52:17;101038.94;;;-8.44;68.92
66385;BME280;53426;55.872;37.462;2023-12-07T01:54:43;101099.25;;;-8.19;69.75
66385;BME280;53426;55.872;37.462;2023-12-07T01:57:09;101099.44;;;-8.07;68.59
66385;BME280;53426;55.872;37.462;2023-12-07T01:59:35;101093.41;;;-8.11;69.22
66385;BME280;53426;55.872;37.462;2023-12-07T02:02:01;101069.28;;;-8.20;69.34
66385;BME280;53426;55.872;37.462;2023-12-07T02:04:27;101093.47;;;-8.08;68.77
66385;BME280;53426;55.872;37.462;2023-12-07T02:06:54;101082.19;;;-8.16;68.51
66385;BME280;53426;55.872;37.462;2023-12-07T02:09:22;101055.56;;;-8.21;68.51
66385;BME280;53426;55.872;37.462;2023-12-07T02:11:48;101086.53;;;-8.12;68.79
66385;BME280;53426;55.872;37.462;2023-12-07T02:14:14;101108.13;;;-8.02;68.75
66385;BME280;53426;55.872;37.462;2023-12-07T02:16:48;101102.19;;;-7.98;68.71
66385;BME280;53426;55.872;37.462;2023-12-07T02:19:45;101115.94;;;-7.94;68.77
66385;BME280;53426;55.872;37.462;2023-12-07T02:22:18;101120.03;;;-8.06;69.28
66385;BME280;53426;55.872;37.462;2023-12-07T02:24:48;101123.44;;;-8.08;68.52
66385;BME280;53426;55.872;37.462;2023-12-07T02:27:39;101102.59;;;-8.23;68.97
66385;BME280;53426;55.872;37.462;2023-12-07T02:30:07;101112.88;;;-8.25;68.54
66385;BME280;53426;55.872;37.462;2023-12-07T02:32:33;101114.50;;;-8.28;68.75
66385;BME280;53426;55.872;37.462;2023-12-07T02:35:00;101112.88;;;-8.25;68.60
66385;BME280;53426;55.872;37.462;2023-12-07T02:37:28;101118.84;;;-8.26;68.57
66385;BME280;53426;55.872;37.462;2023-12-07T02:39:56;101123.06;;;-8.29;69.65
66385;BME280;53426;55.872;37.462;2023-12-07T02:42:24;101114.50;;;-8.28;68.66
66385;BME280;53426;55.872;37.462;2023-12-07T02:44:53;101097.63;;;-8.65;69.50
66385;BME280;53426;55.872;37.462;2023-12-07T02:47:20;101122.81;;;-8.44;69.09
66385;BME280;53426;55.872;37.462;2023-12-07T02:49:46;101116.78;;;-8.48;69.45
66385;BME280;53426;55.872;37.462;2023-12-07T02:52:12;101124.50;;;-8.47;68.88
66385;BME280;53426;55.872;37.462;2023-12-07T02:54:38;101124.22;;;-8.62;68.96
66385;BME280;53426;55.872;37.462;2023-12-07T02:57:04;101119.94;;;-8.61;69.20
66385;BME280;53426;55.872;37.462;2023-12-07T02:59:30;101117.19;;;-8.73;69.51
66385;BME280;53426;55.872;37.462;2023-12-07T03:01:56;101136.84;;;-8.72;69.38
66385;BME280;53426;55.872;37.462;2023-12-07T03:04:21;101139.19;;;-8.84;69.98
66385;BME280;53426;55.872;37.462;2023-12-07T03:06:47;101135.81;;;-8.82;69.80
66385;BME280;53426;55.872;37.462;2023-12-07T03:09:13;101101.31;;;-8.96;70.04
66385;BME280;53426;55.872;37.462;2023-12-07T03:11:39;101125.50;;;-8.83;70.11
66385;BME280;53426;55.872;37.462;2023-12-07T03:14:05;101141.09;;;-8.74;69.41
66385;BME280;53426;55.872;37.462;2023-12-07T03:16:31;101160.00;;;-8.71;69.52
66385;BME280;53426;55.872;37.462;2023-12-07T03:18:57;101151.38;;;-8.74;69.44
66385;BME280;53426;55.872;37.462;2023-12-07T03:21:23;101089.16;;;-9.06;69.42
66385;BME280;53426;55.872;37.462;2023-12-07T03:23:48;101150.59;;;-8.70;69.65
66385;BME280;53426;55.872;37.462;2023-12-07T03:26:15;101170.47;;;-8.60;69.42
66385;BME280;53426;55.872;37.462;2023-12-07T03:28:41;101155.84;;;-8.64;69.10
66385;BME280;53426;55.872;37.462;2023-12-07T03:31:07;101168.66;;;-8.66;69.04
66385;BME280;53426;55.872;37.462;2023-12-07T03:33:33;101147.81;;;-8.81;68.81
66385;BME280;53426;55.872;37.462;2023-12-07T03:36:00;101157.38;;;-8.72;69.00
66385;BME280;53426;55.872;37.462;2023-12-07T03:38:25;101154.78;;;-8.75;68.28
66385;BME280;53426;55.872;37.462;2023-12-07T03:40:51;101175.31;;;-8.75;69.17
66385;BME280;53426;55.872;37.462;2023-12-07T03:43:19;101185.63;;;-8.72;68.92
66385;BME280;53426;55.872;37.462;2023-12-07T03:45:46;101187.34;;;-8.71;68.92
66385;BME280;53426;55.872;37.462;2023-12-07T03:48:12;101175.31;;;-8.75;68.92
66385;BME280;53426;55.872;37.462;2023-12-07T03:50:38;101193.41;;;-8.69;68.83
66385;BME280;53426;55.872;37.462;2023-12-07T03:53:04;101186.38;;;-8.78;68.80
66385;BME280;53426;55.872;37.462;2023-12-07T03:55:30;101174.28;;;-8.83;68.96
66385;BME280;53426;55.872;37.462;2023-12-07T03:57:56;101119.50;;;-9.26;68.20
66385;BME280;53426;55.872;37.462;2023-12-07T04:00:22;101181.88;;;-8.88;68.92
66385;BME280;53426;55.872;37.462;2023-12-07T04:02:48;101179.06;;;-9.02;69.04
66385;BME280;53426;55.872;37.462;2023-12-07T04:05:14;101186.09;;;-8.92;68.95
66385;BME280;53426;55.872;37.462;2023-12-07T04:07:40;101190.97;;;-9.04;68.74
66385;BME280;53426;55.872;37.462;2023-12-07T04:10:07;101142.50;;;-9.31;69.07
66385;BME280;53426;55.872;37.462;2023-12-07T04:12:33;101192.56;;;-9.09;70.10
66385;BME280;53426;55.872;37.462;2023-12-07T04:14:59;101181.56;;;-9.03;69.25
66385;BME280;53426;55.872;37.462;2023-12-07T04:17:25;101166.00;;;-9.11;69.24
66385;BME280;53426;55.872;37.462;2023-12-07T04:19:51;101189.41;;;-8.97;69.20
66385;BME280;53426;55.872;37.462;2023-12-07T04:22:18;101177.13;;;-9.12;69.36
66385;BME280;53426;55.872;37.462;2023-12-07T04:24:44;101188.34;;;-9.05;69.13
66385;BME280;53426;55.872;37.462;2023-12-07T04:27:10;101202.97;;;-9.03;69.48
66385;BME280;53426;55.872;37.462;2023-12-07T04:29:40;101202.13;;;-9.02;69.43
66385;BME280;53426;55.872;37.462;2023-12-07T04:32:07;101194.56;;;-8.96;69.39
66385;BME280;53426;55.872;37.462;2023-12-07T04:34:33;101209.06;;;-8.98;69.35
66385;BME280;53426;55.872;37.462;2023-12-07T04:36:59;101184.81;;;-9.12;69.23
66385;BME280;53426;55.872;37.462;2023-12-07T04:39:25;101182.31;;;-9.09;69.09
66385;BME280;53426;55.872;37.462;2023-12-07T04:41:51;101201.31;;;-9.01;69.28
66385;BME280;53426;55.872;37.462;2023-12-07T04:44:17;101213.22;;;-9.03;69.58
66385;BME280;53426;55.872;37.462;2023-12-07T04:46:43;101198.47;;;-9.13;69.01
66385;BME280;53426;55.872;37.462;2023-12-07T04:49:09;101218.19;;;-9.10;69.06
66385;BME280;53426;55.872;37.462;2023-12-07T04:51:34;101219.97;;;-9.08;69.13
66385;BME280;53426;55.872;37.462;2023-12-07T04:54:00;101196.44;;;-9.27;69.29
66385;BME280;53426;55.872;37.462;2023-12-07T04:56:26;101215.31;;;-9.24;69.51
66385;BME280;53426;55.872;37.462;2023-12-07T04:58:52;101203.50;;;-9.17;69.48
66385;BME280;53426;55.872;37.462;2023-12-07T05:01:18;101216.28;;;-9.19;69.78
66385;BME280;53426;55.872;37.462;2023-12-07T05:03:45;101172.13;;;-9.45;69.69
66385;BME280;53426;55.872;37.462;2023-12-07T05:06:11;101208.75;;;-9.13;69.91
66385;BME280;53426;55.872;37.462;2023-12-07T05:08:39;101227.53;;;-9.14;70.00
66385;BME280;53426;55.872;37.462;2023-12-07T05:11:05;101165.44;;;-9.38;69.50
66385;BME280;53426;55.872;37.462;2023-12-07T05:13:32;101234.25;;;-9.19;68.96
66385;BME280;53426;55.872;37.462;2023-12-07T05:15:59;101234.13;;;-9.25;69.46
66385;BME280;53426;55.872;37.462;2023-12-07T05:18:25;101230.69;;;-9.25;69.33
66385;BME280;53426;55.872;37.462;2023-12-07T05:20:51;101234.06;;;-9.28;69.42
66385;BME280;53426;55.872;37.462;2023-12-07T05:23:17;101185.34;;;-9.64;69.90
66385;BME280;53426;55.872;37.462;2023-12-07T05:25:45;101228.53;;;-9.43;69.49
66385;BME280;53426;55.872;37.462;2023-12-07T05:28:11;101247.75;;;-9.27;69.75
66385;BME280;53426;55.872;37.462;2023-12-07T05:30:37;101253.59;;;-9.33;69.75
66385;BME280;53426;55.872;37.462;2023-12-07T05:33:03;101189.59;;;-9.64;69.48
66385;BME280;53426;55.872;37.462;2023-12-07T05:35:29;101258.78;;;-9.30;69.65
66385;BME280;53426;55.872;37.462;2023-12-07T05:37:55;101259.66;;;-9.29;69.73
66385;BME280;53426;55.872;37.462;2023-12-07T05:40:24;101213.06;;;-9.49;69.42
66385;BME280;53426;55.872;37.462;2023-12-07T05:42:50;101246.50;;;-9.43;69.75
66385;BME280;53426;55.872;37.462;2023-12-07T05:45:18;101271.56;;;-9.32;69.35
66385;BME280;53426;55.872;37.462;2023-12-07T05:47:45;101180.63;;;-9.83;69.44
66385;BME280;53426;55.872;37.462;2023-12-07T05:50:11;101239.41;;;-9.55;69.96
66385;BME280;53426;55.872;37.462;2023-12-07T05:52:37;101269.81;;;-9.34;69.98
66385;BME280;53426;55.872;37.462;2023-12-07T05:55:04;101262.19;;;-9.31;69.89
66385;BME280;53426;55.872;37.462;2023-12-07T05:57:30;101266.34;;;-9.36;69.23
66385;BME280;53426;55.872;37.462;2023-12-07T05:59:56;101224.59;;;-9.66;69.66
66385;BME280;53426;55.872;37.462;2023-12-07T06:02:22;101256.66;;;-9.48;69.65
66385;BME280;53426;55.872;37.462;2023-12-07T06:04:48;101261.31;;;-9.32;69.27
66385;BME280;53426;55.872;37.462;2023-12-07T06:07:15;101259.44;;;-9.39;69.67
66385;BME280;53426;55.872;37.462;2023-12-07T06:09:41;101279.97;;;-9.39;69.76
66385;BME280;53426;55.872;37.462;2023-12-07T06:12:08;101272.19;;;-9.42;69.86
66385;BME280;53426;55.872;37.462;2023-12-07T06:14:34;101241.38;;;-9.43;70.26
66385;BME280;53426;55.872;37.462;2023-12-07T06:17:00;101243.25;;;-9.36;69.29
66385;BME280;53426;55.872;37.462;2023-12-07T06:19:28;101284.16;;;-9.05;69.74
66385;BME280;53426;55.872;37.462;2023-12-07T06:21:56;101267.81;;;-9.10;69.49
66385;BME280;53426;55.872;37.462;2023-12-07T06:24:23;101273.81;;;-9.09;68.91
66385;BME280;53426;55.872;37.462;2023-12-07T06:26:51;101264.16;;;-9.19;68.96
66385;BME280;53426;55.872;37.462;2023-12-07T06:29:17;101280.63;;;-9.10;69.50
66385;BME280;53426;55.872;37.462;2023-12-07T06:31:44;101222.63;;;-9.41;69.29
66385;BME280;53426;55.872;37.462;2023-12-07T06:34:10;101240.88;;;-9.28;69.21
66385;BME280;53426;55.872;37.462;2023-12-07T06:36:36;101197.69;;;-9.48;69.40
66385;BME280;53426;55.872;37.462;2023-12-07T06:39:02;101219.31;;;-9.37;68.61
66385;BME280;53426;55.872;37.462;2023-12-07T06:41:28;101281.97;;;-8.88;69.06
66385;BME280;53426;55.872;37.462;2023-12-07T06:43:54;101289.00;;;-8.81;69.01
66385;BME280;53426;55.872;37.462;2023-12-07T06:46:20;101267.31;;;-8.95;68.54
66385;BME280;53426;55.872;37.462;2023-12-07T06:48:46;101263.81;;;-8.97;68.60
66385;BME280;53426;55.872;37.462;2023-12-07T06:51:12;101276.28;;;-8.75;68.43
66385;BME280;53426;55.872;37.462;2023-12-07T06:53:41;101272.28;;;-8.62;68.12
66385;BME280;53426;55.872;37.462;2023-12-07T06:56:08;101281.84;;;-8.55;67.68
66385;BME280;53426;55.872;37.462;2023-12-07T06:58:34;101279.22;;;-8.58;67.75
66385;BME280;53426;55.872;37.462;2023-12-07T07:01:01;101275.69;;;-8.63;67.87
66385;BME280;53426;55.872;37.462;2023-12-07T07:03:28;101279.81;;;-8.70;67.25
66385;BME280;53426;55.872;37.462;2023-12-07T07:05:54;101289.31;;;-8.67;67.34
66385;BME280;53426;55.872;37.462;2023-12-07T07:08:20;101271.94;;;-8.77;67.21
66385;BME280;53426;55.872;37.462;2023-12-07T07:10:46;101293.44;;;-8.72;67.41
66385;BME280;53426;55.872;37.462;2023-12-07T07:13:12;101289.78;;;-8.83;67.06
66385;BME280;53426;55.872;37.462;2023-12-07T07:15:42;101240.34;;;-9.14;66.52
66385;BME280;53426;55.872;37.462;2023-12-07T07:18:11;101305.94;;;-8.88;67.03
66385;BME280;53426;55.872;37.462;2023-12-07T07:20:37;101269.47;;;-9.12;67.11
66385;BME280;53426;55.872;37.462;2023-12-07T07:23:03;101290.34;;;-8.97;67.08
66385;BME280;53426;55.872;37.462;2023-12-07T07:25:29;101292.88;;;-8.98;66.92
66385;BME280;53426;55.872;37.462;2023-12-07T07:27:57;101273.91;;;-9.05;66.75
66385;BME280;53426;55.872;37.462;2023-12-07T07:30:23;101289.66;;;-8.90;67.07
66385;BME280;53426;55.872;37.462;2023-12-07T07:32:49;101233.75;;;-9.03;66.99
66385;BME280;53426;55.872;37.462;2023-12-07T07:35:16;101293.47;;;-8.71;66.21
66385;BME280;53426;55.872;37.462;2023-12-07T07:37:42;101299.63;;;-8.64;66.03
66385;BME280;53426;55.872;37.462;2023-12-07T07:40:08;101309.75;;;-8.70;66.29
66385;BME280;53426;55.872;37.462;2023-12-07T07:42:38;101311.31;;;-8.78;66.03
66385;BME280;53426;55.872;37.462;2023-12-07T07:45:06;101299.50;;;-8.70;66.44
66385;BME280;53426;55.872;37.462;2023-12-07T07:47:33;101280.41;;;-8.81;66.05
66385;BME280;53426;55.872;37.462;2023-12-07T07:49:59;101303.03;;;-8.65;65.87
66385;BME280;53426;55.872;37.462;2023-12-07T07:52:34;101296.28;;;-8.60;65.60
66385;BME280;53426;55.872;37.462;2023-12-07T07:55:03;101306.50;;;-8.62;65.68
66385;BME280;53426;55.872;37.462;2023-12-07T07:57:31;101268.25;;;-8.90;65.79
66385;BME280;53426;55.872;37.462;2023-12-07T07:59:57;101306.16;;;-8.78;66.13
66385;BME280;53426;55.872;37.462;2023-12-07T08:02:23;101288.75;;;-8.92;66.54
66385;BME280;53426;55.872;37.462;2023-12-07T08:04:49;101293.13;;;-8.88;65.83
66385;BME280;53426;55.872;37.462;2023-12-07T08:07:17;101299.34;;;-8.76;65.39
66385;BME280;53426;55.872;37.462;2023-12-07T08:09:43;101303.03;;;-8.65;65.49
66385;BME280;53426;55.872;37.462;2023-12-07T08:12:09;101316.97;;;-8.54;65.83
66385;BME280;53426;55.872;37.462;2023-12-07T08:14:36;101297.06;;;-8.64;65.27
66385;BME280;53426;55.872;37.462;2023-12-07T08:17:03;101315.22;;;-8.55;65.41
66385;BME280;53426;55.872;37.462;2023-12-07T08:19:29;101316.22;;;-8.49;65.88
66385;BME280;53426;55.872;37.462;2023-12-07T08:21:55;101305.06;;;-8.49;65.31
66385;BME280;53426;55.872;37.462;2023-12-07T08:24:21;101317.22;;;-8.42;64.65
66385;BME280;53426;55.872;37.462;2023-12-07T08:26:47;101315.66;;;-8.34;64.30
66385;BME280;53426;55.872;37.462;2023-12-07T08:29:13;101315.47;;;-8.43;64.46
66385;BME280;53426;55.872;37.462;2023-12-07T08:31:42;101303.69;;;-8.74;65.51
66385;BME280;53426;55.872;37.462;2023-12-07T08:34:08;101293.06;;;-8.50;65.33
66385;BME280;53426;55.872;37.462;2023-12-07T08:36:34;101306.72;;;-7.64;64.47
66385;BME280;53426;55.872;37.462;2023-12-07T08:39:00;101238.81;;;-7.20;63.06
66385;BME280;53426;55.872;37.462;2023-12-07T08:41:26;101306.03;;;-6.38;62.17
66385;BME280;53426;55.872;37.462;2023-12-07T08:43:52;101317.38;;;-6.25;61.64
66385;BME280;53426;55.872;37.462;2023-12-07T08:46:17;101292.75;;;-5.99;60.22
66385;BME280;53426;55.872;37.462;2023-12-07T08:48:43;101302.72;;;-5.45;58.33
66385;BME280;53426;55.872;37.462;2023-12-07T08:51:10;101261.88;;;-4.83;55.50
66385;BME280;53426;55.872;37.462;2023-12-07T08:53:37;101281.06;;;-4.31;54.03
66385;BME280;53426;55.872;37.462;2023-12-07T08:56:03;101279.56;;;-3.66;52.07
66385;BME280;53426;55.872;37.462;2023-12-07T08:58:29;101278.69;;;-3.20;51.46
66385;BME280;53426;55.872;37.462;2023-12-07T09:00:56;101279.56;;;-2.95;49.43
66385;BME280;53426;55.872;37.462;2023-12-07T09:03:22;101275.09;;;-2.43;48.50
66385;BME280;53426;55.872;37.462;2023-12-07T09:05:53;101280.00;;;-1.85;47.63
66385;BME280;53426;55.872;37.462;2023-12-07T09:08:20;101266.03;;;-1.61;46.66
66385;BME280;53426;55.872;37.462;2023-12-07T09:10:46;101283.34;;;-1.62;45.95
66385;BME280;53426;55.872;37.462;2023-12-07T09:13:12;101282.50;;;-1.64;44.63
66385;BME280;53426;55.872;37.462;2023-12-07T09:15:38;101242.75;;;-1.75;46.71
66385;BME280;53426;55.872;37.462;2023-12-07T09:18:04;101262.31;;;-1.30;45.38
66385;BME280;53426;55.872;37.462;2023-12-07T09:20:31;101270.69;;;-0.95;45.95
66385;BME280;53426;55.872;37.462;2023-12-07T09:22:57;101276.22;;;-1.34;45.36
66385;BME280;53426;55.872;37.462;2023-12-07T09:25:23;101292.09;;;-1.80;45.43
66385;BME280;53426;55.872;37.462;2023-12-07T09:27:49;101279.25;;;-1.99;44.53
66385;BME280;53426;55.872;37.462;2023-12-07T09:30:17;101262.72;;;-1.86;45.46
66385;BME280;53426;55.872;37.462;2023-12-07T09:32:43;101276.53;;;-1.84;44.74
66385;BME280;53426;55.872;37.462;2023-12-07T09:35:09;101294.00;;;-2.12;44.37
66385;BME280;53426;55.872;37.462;2023-12-07T09:37:46;101278.59;;;-2.55;45.35
66385;BME280;53426;55.872;37.462;2023-12-07T09:40:18;101295.03;;;-2.59;46.16
66385;BME280;53426;55.872;37.462;2023-12-07T09:42:47;101283.81;;;-2.70;46.05
66385;BME280;53426;55.872;37.462;2023-12-07T09:45:13;101276.09;;;-2.91;46.19
66385;BME280;53426;55.872;37.462;2023-12-07T09:47:42;101267.50;;;-3.35;46.47
66385;BME280;53426;55.872;37.462;2023-12-07T09:50:09;101264.00;;;-2.97;46.14
66385;BME280;53426;55.872;37.462;2023-12-07T09:52:35;101259.69;;;-2.93;46.63
66385;BME280;53426;55.872;37.462;2023-12-07T09:55:05;101269.94;;;-2.47;45.81
66385;BME280;53426;55.872;37.462;2023-12-07T09:57:32;101257.97;;;-3.00;46.26
66385;BME280;53426;55.872;37.462;2023-12-07T09:59:59;101271.81;;;-3.56;46.94
66385;BME280;53426;55.872;37.462;2023-12-07T10:02:25;101247.63;;;-3.37;46.79
66385;BME280;53426;55.872;37.462;2023-12-07T10:05:09;101264.03;;;-3.19;47.19
66385;BME280;53426;55.872;37.462;2023-12-07T10:07:41;101291.56;;;-4.00;47.48
66385;BME280;53426;55.872;37.462;2023-12-07T10:10:07;101282.69;;;-4.55;48.58
66385;BME280;53426;55.872;37.462;2023-12-07T10:12:35;101265.06;;;-5.20;49.72
66385;BME280;53426;55.872;37.462;2023-12-07T10:15:22;101286.22;;;-5.64;50.73
66385;BME280;53426;55.872;37.462;2023-12-07T10:17:59;101296.28;;;-5.93;52.25
66385;BME280;53426;55.872;37.462;2023-12-07T10:20:28;101289.25;;;-6.04;51.80
66385;BME280;53426;55.872;37.462;2023-12-07T10:23:05;101280.28;;;-6.37;52.95
66385;BME280;53426;55.872;37.462;2023-12-07T10:25:35;101295.91;;;-6.89;53.68
66385;BME280;53426;55.872;37.462;2023-12-07T10:28:02;101285.28;;;-7.09;54.82
66385;BME280;53426;55.872;37.462;2023-12-07T10:30:37;101273.81;;;-7.31;55.30
66385;BME280;53426;55.872;37.462;2023-12-07T10:33:07;101297.91;;;-7.27;55.66
66385;BME280;53426;55.872;37.462;2023-12-07T10:35:38;101284.09;;;-7.32;55.54
66385;BME280;53426;55.872;37.462;2023-12-07T10:38:04;101300.19;;;-7.44;56.54
66385;BME280;53426;55.872;37.462;2023-12-07T10:40:30;101277.59;;;-7.62;56.29
66385;BME280;53426;55.872;37.462;2023-12-07T10:42:57;101289.66;;;-7.59;57.06
66385;BME280;53426;55.872;37.462;2023-12-07T10:45:29;101293.09;;;-7.57;57.53
66385;BME280;53426;55.872;37.462;2023-12-07T10:48:04;101298.88;;;-7.69;57.32
66385;BME280;53426;55.872;37.462;2023-12-07T10:50:32;101303.97;;;-7.73;58.44
66385;BME280;53426;55.872;37.462;2023-12-07T10:53:09;101259.94;;;-7.91;57.72
66385;BME280;53426;55.872;37.462;2023-12-07T10:55:42;101300.59;;;-7.71;58.64
66385;BME280;53426;55.872;37.462;2023-12-07T10:58:11;101303.88;;;-7.78;57.99
66385;BME280;53426;55.872;37.462;2023-12-07T11:00:42;101305.84;;;-7.65;57.87
66385;BME280;53426;55.872;37.462;2023-12-07T11:03:16;101302.06;;;-7.83;58.20
66385;BME280;53426;55.872;37.462;2023-12-07T11:05:47;101295.81;;;-7.96;59.13
66385;BME280;53426;55.872;37.462;2023-12-07T11:11:08;101311.22;;;-7.97;59.94
66385;BME280;53426;55.872;37.462;2023-12-07T11:13:37;101275.00;;;-8.10;59.15
66385;BME280;53426;55.872;37.462;2023-12-07T11:16:04;101304.50;;;-7.89;58.97
66385;BME280;53426;55.872;37.462;2023-12-07T11:18:30;101311.16;;;-8.02;60.07
66385;BME280;53426;55.872;37.462;2023-12-07T11:20:57;101314.97;;;-8.25;60.15
66385;BME280;53426;55.872;37.462;2023-12-07T11:23:23;101323.59;;;-8.22;60.99
66385;BME280;53426;55.872;37.462;2023-12-07T11:25:52;101314.94;;;-8.27;61.03
66385;BME280;53426;55.872;37.462;2023-12-07T11:28:18;101303.75;;;-8.29;60.95
66385;BME280;53426;55.872;37.462;2023-12-07T11:31:00;101302.63;;;-8.43;60.70
66385;BME280;53426;55.872;37.462;2023-12-07T11:33:29;101298.34;;;-8.44;60.83
66385;BME280;53426;55.872;37.462;2023-12-07T11:38:27;101315.75;;;-8.31;61.06
66385;BME280;53426;55.872;37.462;2023-12-07T11:40:54;101307.59;;;-8.52;61.47
66385;BME280;53426;55.872;37.462;2023-12-07T11:45:59;101308.78;;;-8.36;61.45
66385;BME280;53426;55.872;37.462;2023-12-07T11:48:27;101307.94;;;-8.35;60.54
66385;BME280;53426;55.872;37.462;2023-12-07T11:50:57;101288.44;;;-8.66;61.03
66385;BME280;53426;55.872;37.462;2023-12-07T11:53:31;101296.66;;;-8.82;62.68
66385;BME280;53426;55.872;37.462;2023-12-07T11:56:04;101306.41;;;-8.68;62.15
66385;BME280;53426;55.872;37.462;2023-12-07T11:58:32;101285.69;;;-8.75;62.27
66385;BME280;53426;55.872;37.462;2023-12-07T12:01:01;101293.63;;;-8.65;62.40
66385;BME280;53426;55.872;37.462;2023-12-07T12:03:29;101312.69;;;-8.54;61.63
66385;BME280;53426;55.872;37.462;2023-12-07T12:05:55;101312.72;;;-8.52;62.07
66385;BME280;53426;55.872;37.462;2023-12-07T12:08:22;101301.59;;;-8.53;63.10
66385;BME280;53426;55.872;37.462;2023-12-07T12:10:49;101303.34;;;-8.50;62.26
66385;BME280;53426;55.872;37.462;2023-12-07T12:13:17;101306.13;;;-8.39;63.04
66385;BME280;53426;55.872;37.462;2023-12-07T12:15:45;101309.50;;;-8.42;62.19
66385;BME280;53426;55.872;37.462;2023-12-07T12:18:14;101275.03;;;-8.53;63.01
66385;BME280;53426;55.872;37.462;2023-12-07T12:20:45;101302.00;;;-8.33;61.88
66385;BME280;53426;55.872;37.462;2023-12-07T12:23:11;101310.34;;;-8.43;61.81
66385;BME280;53426;55.872;37.462;2023-12-07T12:25:37;101315.09;;;-8.61;62.83
66385;BME280;53426;55.872;37.462;2023-12-07T12:28:06;101308.97;;;-8.66;63.06
66385;BME280;53426;55.872;37.462;2023-12-07T12:30:33;101313.06;;;-8.76;62.51
66385;BME280;53426;55.872;37.462;2023-12-07T12:33:00;101307.78;;;-8.82;63.83
66385;BME280;53426;55.872;37.462;2023-12-07T12:35:26;101305.31;;;-8.77;63.35
66385;BME280;53426;55.872;37.462;2023-12-07T12:37:52;101310.56;;;-8.73;62.92
66385;BME280;53426;55.872;37.462;2023-12-07T12:40:22;101311.50;;;-8.69;62.78
66385;BME280;53426;55.872;37.462;2023-12-07T12:42:50;101327.81;;;-8.67;62.87
66385;BME280;53426;55.872;37.462;2023-12-07T12:45:17;101320.03;;;-8.70;63.10
66385;BME280;53426;55.872;37.462;2023-12-07T12:47:47;101314.84;;;-8.72;63.21